sensor_id;sensor_type;location;lat;lon;timestamp;P1;durP1;ratioP1;P2;durP2;ratioP2
17372;SDS011;8803;48.116;11.590;2023-04-30T00:02:05;6.07;;;4.60;;
17372;SDS011;8803;48.116;11.590;2023-04-30T00:04:08;5.43;;;4.93;;
17372;SDS011;8803;48.116;11.590;2023-04-30T00:06:21;5.27;;;4.77;;
17372;SDS011;8803;48.116;11.590;2023-04-30T00:08:25;6.07;;;5.20;;
17372;SDS011;8803;48.116;11.590;2023-04-30T00:10:30;5.00;;;4.50;;
17372;SDS011;8803;48.116;11.590;2023-04-30T00:12:44;5.20;;;4.53;;
17372;SDS011;8803;48.116;11.590;2023-04-30T00:14:48;4.97;;;4.50;;
17372;SDS011;8803;48.116;11.590;2023-04-30T00:17:01;5.20;;;4.70;;
17372;SDS011;8803;48.116;11.590;2023-04-30T00:19:05;5.70;;;5.20;;
17372;SDS011;8803;48.116;11.590;2023-04-30T00:21:10;5.30;;;4.80;;
17372;SDS011;8803;48.116;11.590;2023-04-30T00:23:13;5.63;;;4.93;;
17372;SDS011;8803;48.116;11.590;2023-04-30T00:25:26;4.50;;;4.10;;
17372;SDS011;8803;48.116;11.590;2023-04-30T00:27:30;5.20;;;4.70;;
17372;SDS011;8803;48.116;11.590;2023-04-30T00:29:34;5.03;;;4.53;;
17372;SDS011;8803;48.116;11.590;2023-04-30T00:31:39;5.30;;;4.63;;
17372;SDS011;8803;48.116;11.590;2023-04-30T00:33:53;4.57;;;4.17;;
17372;SDS011;8803;48.116;11.590;2023-04-30T00:35:57;5.67;;;4.73;;
17372;SDS011;8803;48.116;11.590;2023-04-30T00:38:10;5.20;;;4.70;;
17372;SDS011;8803;48.116;11.590;2023-04-30T00:40:14;6.17;;;4.97;;
17372;SDS011;8803;48.116;11.590;2023-04-30T00:42:18;5.23;;;4.73;;
17372;SDS011;8803;48.116;11.590;2023-04-30T00:44:33;5.67;;;5.07;;
17372;SDS011;8803;48.116;11.590;2023-04-30T00:46:37;4.87;;;4.47;;
17372;SDS011;8803;48.116;11.590;2023-04-30T00:48:50;5.20;;;4.70;;
17372;SDS011;8803;48.116;11.590;2023-04-30T00:50:54;5.93;;;5.13;;
17372;SDS011;8803;48.116;11.590;2023-04-30T00:52:58;5.23;;;4.73;;
17372;SDS011;8803;48.116;11.590;2023-04-30T00:55:02;5.60;;;5.00;;
17372;SDS011;8803;48.116;11.590;2023-04-30T00:57:15;5.70;;;5.10;;
17372;SDS011;8803;48.116;11.590;2023-04-30T00:59:19;5.10;;;4.63;;
17372;SDS011;8803;48.116;11.590;2023-04-30T01:01:24;5.57;;;5.07;;
17372;SDS011;8803;48.116;11.590;2023-04-30T01:03:29;6.53;;;5.00;;
17372;SDS011;8803;48.116;11.590;2023-04-30T01:05:43;5.00;;;4.50;;
17372;SDS011;8803;48.116;11.590;2023-04-30T01:07:47;5.13;;;4.63;;
17372;SDS011;8803;48.116;11.590;2023-04-30T01:09:52;5.10;;;4.60;;
17372;SDS011;8803;48.116;11.590;2023-04-30T01:11:58;5.37;;;4.87;;
17372;SDS011;8803;48.116;11.590;2023-04-30T01:14:12;6.13;;;5.37;;
17372;SDS011;8803;48.116;11.590;2023-04-30T01:16:26;5.43;;;4.83;;
17372;SDS011;8803;48.116;11.590;2023-04-30T01:18:34;5.37;;;4.87;;
17372;SDS011;8803;48.116;11.590;2023-04-30T01:20:47;5.97;;;5.37;;
17372;SDS011;8803;48.116;11.590;2023-04-30T01:22:54;5.87;;;5.33;;
17372;SDS011;8803;48.116;11.590;2023-04-30T01:25:20;6.13;;;5.53;;
17372;SDS011;8803;48.116;11.590;2023-04-30T01:27:31;6.77;;;5.50;;
17372;SDS011;8803;48.116;11.590;2023-04-30T01:29:57;6.60;;;5.60;;
17372;SDS011;8803;48.116;11.590;2023-04-30T01:32:03;7.43;;;5.43;;
17372;SDS011;8803;48.116;11.590;2023-04-30T01:34:07;6.00;;;5.40;;
17372;SDS011;8803;48.116;11.590;2023-04-30T01:36:31;6.63;;;5.73;;
17372;SDS011;8803;48.116;11.590;2023-04-30T01:38:45;7.17;;;6.47;;
17372;SDS011;8803;48.116;11.590;2023-04-30T01:40:57;8.00;;;7.03;;
17372;SDS011;8803;48.116;11.590;2023-04-30T01:45:23;6.07;;;5.47;;
17372;SDS011;8803;48.116;11.590;2023-04-30T01:47:38;7.63;;;6.63;;
17372;SDS011;8803;48.116;11.590;2023-04-30T01:49:53;7.03;;;6.33;;
17372;SDS011;8803;48.116;11.590;2023-04-30T01:52:08;8.10;;;6.20;;
17372;SDS011;8803;48.116;11.590;2023-04-30T01:54:16;6.03;;;5.33;;
17372;SDS011;8803;48.116;11.590;2023-04-30T01:56:31;6.30;;;5.70;;
17372;SDS011;8803;48.116;11.590;2023-04-30T01:58:38;5.57;;;5.07;;
17372;SDS011;8803;48.116;11.590;2023-04-30T02:00:43;5.60;;;5.10;;
17372;SDS011;8803;48.116;11.590;2023-04-30T02:02:47;6.83;;;5.60;;
17372;SDS011;8803;48.116;11.590;2023-04-30T02:04:51;5.53;;;5.03;;
17372;SDS011;8803;48.116;11.590;2023-04-30T02:07:06;6.30;;;5.70;;
17372;SDS011;8803;48.116;11.590;2023-04-30T02:09:10;6.23;;;5.27;;
17372;SDS011;8803;48.116;11.590;2023-04-30T02:11:14;5.30;;;4.80;;
17372;SDS011;8803;48.116;11.590;2023-04-30T02:13:17;6.57;;;5.97;;
17372;SDS011;8803;48.116;11.590;2023-04-30T02:15:21;6.30;;;5.70;;
17372;SDS011;8803;48.116;11.590;2023-04-30T02:17:34;6.37;;;5.77;;
17372;SDS011;8803;48.116;11.590;2023-04-30T02:19:38;5.77;;;5.27;;
17372;SDS011;8803;48.116;11.590;2023-04-30T02:21:41;6.27;;;5.57;;
17372;SDS011;8803;48.116;11.590;2023-04-30T02:23:45;6.53;;;5.70;;
17372;SDS011;8803;48.116;11.590;2023-04-30T02:25:58;5.93;;;5.33;;
17372;SDS011;8803;48.116;11.590;2023-04-30T02:28:03;6.33;;;5.73;;
17372;SDS011;8803;48.116;11.590;2023-04-30T02:30:07;7.60;;;6.17;;
17372;SDS011;8803;48.116;11.590;2023-04-30T02:32:12;6.77;;;6.17;;
17372;SDS011;8803;48.116;11.590;2023-04-30T02:34:16;6.30;;;5.70;;
17372;SDS011;8803;48.116;11.590;2023-04-30T02:36:19;6.50;;;5.23;;
17372;SDS011;8803;48.116;11.590;2023-04-30T02:38:32;6.73;;;6.10;;
17372;SDS011;8803;48.116;11.590;2023-04-30T02:40:36;6.53;;;5.80;;
17372;SDS011;8803;48.116;11.590;2023-04-30T02:42:40;6.97;;;6.17;;
17372;SDS011;8803;48.116;11.590;2023-04-30T02:44:52;7.27;;;6.10;;
17372;SDS011;8803;48.116;11.590;2023-04-30T02:46:56;6.43;;;5.83;;
17372;SDS011;8803;48.116;11.590;2023-04-30T02:49:00;6.50;;;5.80;;
17372;SDS011;8803;48.116;11.590;2023-04-30T02:51:04;5.87;;;5.27;;
17372;SDS011;8803;48.116;11.590;2023-04-30T02:53:16;6.07;;;5.47;;
17372;SDS011;8803;48.116;11.590;2023-04-30T02:55:20;6.87;;;6.17;;
17372;SDS011;8803;48.116;11.590;2023-04-30T02:57:24;6.43;;;5.73;;
17372;SDS011;8803;48.116;11.590;2023-04-30T02:59:38;6.80;;;6.20;;
17372;SDS011;8803;48.116;11.590;2023-04-30T03:01:43;6.70;;;6.10;;
17372;SDS011;8803;48.116;11.590;2023-04-30T03:03:47;6.63;;;5.97;;
17372;SDS011;8803;48.116;11.590;2023-04-30T03:08:02;6.53;;;5.93;;
17372;SDS011;8803;48.116;11.590;2023-04-30T03:10:08;6.93;;;6.10;;
17372;SDS011;8803;48.116;11.590;2023-04-30T03:12:12;6.40;;;5.80;;
17372;SDS011;8803;48.116;11.590;2023-04-30T03:14:15;7.67;;;6.57;;
17372;SDS011;8803;48.116;11.590;2023-04-30T03:16:19;6.97;;;6.00;;
17372;SDS011;8803;48.116;11.590;2023-04-30T03:18:32;7.10;;;6.27;;
17372;SDS011;8803;48.116;11.590;2023-04-30T03:20:37;6.80;;;6.10;;
17372;SDS011;8803;48.116;11.590;2023-04-30T03:22:41;6.53;;;5.93;;
17372;SDS011;8803;48.116;11.590;2023-04-30T03:24:53;7.90;;;6.50;;
17372;SDS011;8803;48.116;11.590;2023-04-30T03:26:57;6.57;;;5.97;;
17372;SDS011;8803;48.116;11.590;2023-04-30T03:29:02;6.50;;;5.90;;
17372;SDS011;8803;48.116;11.590;2023-04-30T03:31:06;7.77;;;6.30;;
17372;SDS011;8803;48.116;11.590;2023-04-30T03:33:10;7.03;;;6.33;;
17372;SDS011;8803;48.116;11.590;2023-04-30T03:35:22;7.90;;;7.10;;
17372;SDS011;8803;48.116;11.590;2023-04-30T03:37:26;7.70;;;6.90;;
17372;SDS011;8803;48.116;11.590;2023-04-30T03:39:30;6.20;;;5.60;;
17372;SDS011;8803;48.116;11.590;2023-04-30T03:41:34;6.87;;;6.17;;
17372;SDS011;8803;48.116;11.590;2023-04-30T03:43:38;7.77;;;6.97;;
17372;SDS011;8803;48.116;11.590;2023-04-30T03:45:41;7.70;;;6.90;;
17372;SDS011;8803;48.116;11.590;2023-04-30T03:47:45;8.13;;;6.87;;
17372;SDS011;8803;48.116;11.590;2023-04-30T03:49:58;7.30;;;6.60;;
17372;SDS011;8803;48.116;11.590;2023-04-30T03:52:02;7.20;;;6.50;;
17372;SDS011;8803;48.116;11.590;2023-04-30T03:54:07;10.23;;;6.97;;
17372;SDS011;8803;48.116;11.590;2023-04-30T03:56:20;6.73;;;6.03;;
17372;SDS011;8803;48.116;11.590;2023-04-30T03:58:25;7.20;;;6.17;;
17372;SDS011;8803;48.116;11.590;2023-04-30T04:00:29;6.80;;;6.20;;
17372;SDS011;8803;48.116;11.590;2023-04-30T04:04:47;7.20;;;6.20;;
17372;SDS011;8803;48.116;11.590;2023-04-30T04:06:52;6.80;;;6.17;;
17372;SDS011;8803;48.116;11.590;2023-04-30T04:08:55;7.03;;;6.33;;
17372;SDS011;8803;48.116;11.590;2023-04-30T04:10:59;6.77;;;6.17;;
17372;SDS011;8803;48.116;11.590;2023-04-30T04:13:03;7.80;;;7.00;;
17372;SDS011;8803;48.116;11.590;2023-04-30T04:15:18;7.43;;;6.63;;
17372;SDS011;8803;48.116;11.590;2023-04-30T04:17:22;8.83;;;7.70;;
17372;SDS011;8803;48.116;11.590;2023-04-30T04:19:26;7.80;;;6.97;;
17372;SDS011;8803;48.116;11.590;2023-04-30T04:21:29;9.17;;;7.93;;
17372;SDS011;8803;48.116;11.590;2023-04-30T04:23:33;7.17;;;6.47;;
17372;SDS011;8803;48.116;11.590;2023-04-30T04:25:46;8.30;;;7.50;;
17372;SDS011;8803;48.116;11.590;2023-04-30T04:27:50;7.60;;;6.90;;
17372;SDS011;8803;48.116;11.590;2023-04-30T04:29:54;7.10;;;6.40;;
17372;SDS011;8803;48.116;11.590;2023-04-30T04:31:58;7.17;;;6.47;;
17372;SDS011;8803;48.116;11.590;2023-04-30T04:34:03;7.60;;;6.90;;
17372;SDS011;8803;48.116;11.590;2023-04-30T04:36:07;7.63;;;6.80;;
17372;SDS011;8803;48.116;11.590;2023-04-30T04:38:11;8.17;;;7.37;;
17372;SDS011;8803;48.116;11.590;2023-04-30T04:40:24;7.37;;;6.67;;
17372;SDS011;8803;48.116;11.590;2023-04-30T04:42:28;7.67;;;6.57;;
17372;SDS011;8803;48.116;11.590;2023-04-30T04:44:42;7.73;;;7.00;;
17372;SDS011;8803;48.116;11.590;2023-04-30T04:46:46;7.27;;;6.57;;
17372;SDS011;8803;48.116;11.590;2023-04-30T04:48:51;7.97;;;7.17;;
17372;SDS011;8803;48.116;11.590;2023-04-30T04:50:55;7.63;;;6.90;;
17372;SDS011;8803;48.116;11.590;2023-04-30T04:55:10;7.27;;;6.57;;
17372;SDS011;8803;48.116;11.590;2023-04-30T04:57:15;8.23;;;6.40;;
17372;SDS011;8803;48.116;11.590;2023-04-30T04:59:19;7.67;;;6.87;;
17372;SDS011;8803;48.116;11.590;2023-04-30T05:01:23;6.97;;;6.07;;
17372;SDS011;8803;48.116;11.590;2023-04-30T05:03:27;7.90;;;7.13;;
17372;SDS011;8803;48.116;11.590;2023-04-30T05:05:42;7.43;;;6.73;;
17372;SDS011;8803;48.116;11.590;2023-04-30T05:07:46;7.33;;;6.63;;
17372;SDS011;8803;48.116;11.590;2023-04-30T05:09:52;7.37;;;6.53;;
17372;SDS011;8803;48.116;11.590;2023-04-30T05:11:56;7.07;;;6.40;;
17372;SDS011;8803;48.116;11.590;2023-04-30T05:16:11;7.60;;;6.83;;
17372;SDS011;8803;48.116;11.590;2023-04-30T05:18:16;6.90;;;6.13;;
17372;SDS011;8803;48.116;11.590;2023-04-30T05:20:20;8.00;;;7.30;;
17372;SDS011;8803;48.116;11.590;2023-04-30T05:22:35;7.07;;;6.37;;
17372;SDS011;8803;48.116;11.590;2023-04-30T05:24:39;7.50;;;6.60;;
17372;SDS011;8803;48.116;11.590;2023-04-30T05:26:52;7.30;;;6.33;;
17372;SDS011;8803;48.116;11.590;2023-04-30T05:28:56;7.73;;;6.93;;
17372;SDS011;8803;48.116;11.590;2023-04-30T05:31:00;7.13;;;6.50;;
17372;SDS011;8803;48.116;11.590;2023-04-30T05:33:03;8.23;;;7.37;;
17372;SDS011;8803;48.116;11.590;2023-04-30T05:35:08;7.70;;;7.00;;
17372;SDS011;8803;48.116;11.590;2023-04-30T05:37:22;7.50;;;6.80;;
17372;SDS011;8803;48.116;11.590;2023-04-30T05:39:26;7.63;;;6.83;;
17372;SDS011;8803;48.116;11.590;2023-04-30T05:41:30;7.87;;;7.07;;
17372;SDS011;8803;48.116;11.590;2023-04-30T05:43:34;7.73;;;6.93;;
17372;SDS011;8803;48.116;11.590;2023-04-30T05:45:49;7.37;;;6.67;;
17372;SDS011;8803;48.116;11.590;2023-04-30T05:47:53;6.67;;;6.07;;
17372;SDS011;8803;48.116;11.590;2023-04-30T05:49:57;7.10;;;6.47;;
17372;SDS011;8803;48.116;11.590;2023-04-30T05:52:01;7.70;;;6.90;;
17372;SDS011;8803;48.116;11.590;2023-04-30T05:54:04;7.57;;;6.63;;
17372;SDS011;8803;48.116;11.590;2023-04-30T05:56:19;8.07;;;7.17;;
17372;SDS011;8803;48.116;11.590;2023-04-30T05:58:24;8.53;;;6.80;;
17372;SDS011;8803;48.116;11.590;2023-04-30T06:00:28;8.37;;;7.57;;
17372;SDS011;8803;48.116;11.590;2023-04-30T06:02:52;7.63;;;6.80;;
17372;SDS011;8803;48.116;11.590;2023-04-30T06:04:56;7.40;;;6.70;;
17372;SDS011;8803;48.116;11.590;2023-04-30T06:07:08;6.87;;;6.27;;
17372;SDS011;8803;48.116;11.590;2023-04-30T06:09:13;7.63;;;6.93;;
17372;SDS011;8803;48.116;11.590;2023-04-30T06:11:16;7.77;;;7.07;;
17372;SDS011;8803;48.116;11.590;2023-04-30T06:13:21;7.93;;;7.13;;
17372;SDS011;8803;48.116;11.590;2023-04-30T06:15:34;7.17;;;6.47;;
17372;SDS011;8803;48.116;11.590;2023-04-30T06:17:37;7.73;;;6.93;;
17372;SDS011;8803;48.116;11.590;2023-04-30T06:19:41;6.90;;;6.30;;
17372;SDS011;8803;48.116;11.590;2023-04-30T06:21:45;8.23;;;7.43;;
17372;SDS011;8803;48.116;11.590;2023-04-30T06:23:49;8.50;;;7.60;;
17372;SDS011;8803;48.116;11.590;2023-04-30T06:26:02;7.23;;;6.53;;
17372;SDS011;8803;48.116;11.590;2023-04-30T06:28:05;7.50;;;6.80;;
17372;SDS011;8803;48.116;11.590;2023-04-30T06:30:20;6.30;;;5.70;;
17372;SDS011;8803;48.116;11.590;2023-04-30T06:32:26;8.10;;;6.23;;
17372;SDS011;8803;48.116;11.590;2023-04-30T06:34:39;6.53;;;6.00;;
17372;SDS011;8803;48.116;11.590;2023-04-30T06:36:43;6.27;;;5.67;;
17372;SDS011;8803;48.116;11.590;2023-04-30T06:38:56;7.03;;;6.43;;
17372;SDS011;8803;48.116;11.590;2023-04-30T06:41:00;6.20;;;5.70;;
17372;SDS011;8803;48.116;11.590;2023-04-30T06:45:16;5.73;;;5.10;;
17372;SDS011;8803;48.116;11.590;2023-04-30T06:47:19;6.23;;;5.73;;
17372;SDS011;8803;48.116;11.590;2023-04-30T06:49:23;7.93;;;5.63;;
17372;SDS011;8803;48.116;11.590;2023-04-30T06:51:27;5.70;;;5.20;;
17372;SDS011;8803;48.116;11.590;2023-04-30T06:53:31;5.77;;;5.27;;
17372;SDS011;8803;48.116;11.590;2023-04-30T06:55:34;5.43;;;4.93;;
17372;SDS011;8803;48.116;11.590;2023-04-30T06:57:47;5.57;;;5.07;;
17372;SDS011;8803;48.116;11.590;2023-04-30T06:59:51;5.70;;;5.20;;
17372;SDS011;8803;48.116;11.590;2023-04-30T07:01:55;5.53;;;5.03;;
17372;SDS011;8803;48.116;11.590;2023-04-30T07:03:59;6.03;;;5.53;;
17372;SDS011;8803;48.116;11.590;2023-04-30T07:06:14;5.63;;;5.13;;
17372;SDS011;8803;48.116;11.590;2023-04-30T07:08:17;5.57;;;5.07;;
17372;SDS011;8803;48.116;11.590;2023-04-30T07:10:22;6.00;;;5.33;;
17372;SDS011;8803;48.116;11.590;2023-04-30T07:14:38;6.00;;;5.40;;
17372;SDS011;8803;48.116;11.590;2023-04-30T07:16:42;5.87;;;5.27;;
17372;SDS011;8803;48.116;11.590;2023-04-30T07:18:46;5.07;;;4.67;;
17372;SDS011;8803;48.116;11.590;2023-04-30T07:20:50;6.13;;;5.53;;
17372;SDS011;8803;48.116;11.590;2023-04-30T07:22:54;4.87;;;4.40;;
17372;SDS011;8803;48.116;11.590;2023-04-30T07:25:08;5.67;;;4.67;;
17372;SDS011;8803;48.116;11.590;2023-04-30T07:27:12;5.30;;;4.80;;
17372;SDS011;8803;48.116;11.590;2023-04-30T07:29:16;4.97;;;4.57;;
17372;SDS011;8803;48.116;11.590;2023-04-30T07:31:20;5.60;;;5.10;;
17372;SDS011;8803;48.116;11.590;2023-04-30T07:33:23;4.37;;;3.97;;
17372;SDS011;8803;48.116;11.590;2023-04-30T07:37:39;4.67;;;4.27;;
17372;SDS011;8803;48.116;11.590;2023-04-30T07:39:44;5.37;;;4.87;;
17372;SDS011;8803;48.116;11.590;2023-04-30T07:41:48;4.83;;;4.43;;
17372;SDS011;8803;48.116;11.590;2023-04-30T07:44:00;7.30;;;5.23;;
17372;SDS011;8803;48.116;11.590;2023-04-30T07:46:04;5.40;;;4.90;;
17372;SDS011;8803;48.116;11.590;2023-04-30T07:48:08;5.03;;;4.60;;
17372;SDS011;8803;48.116;11.590;2023-04-30T07:50:21;5.23;;;4.83;;
17372;SDS011;8803;48.116;11.590;2023-04-30T07:52:25;4.67;;;4.27;;
17372;SDS011;8803;48.116;11.590;2023-04-30T07:54:29;5.10;;;4.60;;
17372;SDS011;8803;48.116;11.590;2023-04-30T07:56:35;4.60;;;4.20;;
17372;SDS011;8803;48.116;11.590;2023-04-30T07:58:38;4.53;;;4.07;;
17372;SDS011;8803;48.116;11.590;2023-04-30T08:00:42;4.40;;;4.00;;
17372;SDS011;8803;48.116;11.590;2023-04-30T08:02:46;4.83;;;4.43;;
17372;SDS011;8803;48.116;11.590;2023-04-30T08:05:00;5.00;;;4.60;;
17372;SDS011;8803;48.116;11.590;2023-04-30T08:07:04;5.27;;;4.20;;
17372;SDS011;8803;48.116;11.590;2023-04-30T08:09:08;5.60;;;5.10;;
17372;SDS011;8803;48.116;11.590;2023-04-30T08:11:12;5.33;;;4.83;;
17372;SDS011;8803;48.116;11.590;2023-04-30T08:13:16;6.03;;;5.50;;
17372;SDS011;8803;48.116;11.590;2023-04-30T08:15:29;5.43;;;4.97;;
17372;SDS011;8803;48.116;11.590;2023-04-30T08:17:34;5.70;;;5.20;;
17372;SDS011;8803;48.116;11.590;2023-04-30T08:19:38;4.70;;;4.30;;
17372;SDS011;8803;48.116;11.590;2023-04-30T08:21:42;5.10;;;4.70;;
17372;SDS011;8803;48.116;11.590;2023-04-30T08:23:46;4.60;;;4.20;;
17372;SDS011;8803;48.116;11.590;2023-04-30T08:25:58;4.77;;;4.37;;
17372;SDS011;8803;48.116;11.590;2023-04-30T08:28:02;5.20;;;4.80;;
17372;SDS011;8803;48.116;11.590;2023-04-30T08:30:07;4.73;;;4.33;;
17372;SDS011;8803;48.116;11.590;2023-04-30T08:32:12;5.17;;;4.27;;
17372;SDS011;8803;48.116;11.590;2023-04-30T08:34:27;4.73;;;4.37;;
17372;SDS011;8803;48.116;11.590;2023-04-30T08:36:31;4.37;;;4.00;;
17372;SDS011;8803;48.116;11.590;2023-04-30T08:38:44;5.13;;;4.73;;
17372;SDS011;8803;48.116;11.590;2023-04-30T08:40:51;4.77;;;4.37;;
17372;SDS011;8803;48.116;11.590;2023-04-30T08:43:05;4.37;;;4.07;;
17372;SDS011;8803;48.116;11.590;2023-04-30T08:45:11;5.37;;;4.87;;
17372;SDS011;8803;48.116;11.590;2023-04-30T08:47:24;5.97;;;5.40;;
17372;SDS011;8803;48.116;11.590;2023-04-30T08:49:28;4.73;;;4.30;;
17372;SDS011;8803;48.116;11.590;2023-04-30T08:51:33;4.67;;;4.27;;
17372;SDS011;8803;48.116;11.590;2023-04-30T08:53:36;4.10;;;3.80;;
17372;SDS011;8803;48.116;11.590;2023-04-30T08:55:49;3.60;;;3.30;;
17372;SDS011;8803;48.116;11.590;2023-04-30T08:57:53;4.20;;;3.70;;
17372;SDS011;8803;48.116;11.590;2023-04-30T08:59:57;4.10;;;3.67;;
17372;SDS011;8803;48.116;11.590;2023-04-30T09:02:12;4.03;;;3.63;;
17372;SDS011;8803;48.116;11.590;2023-04-30T09:04:16;4.60;;;4.20;;
17372;SDS011;8803;48.116;11.590;2023-04-30T09:06:29;4.60;;;4.20;;
17372;SDS011;8803;48.116;11.590;2023-04-30T09:08:40;3.87;;;3.50;;
17372;SDS011;8803;48.116;11.590;2023-04-30T09:10:45;5.70;;;5.20;;
17372;SDS011;8803;48.116;11.590;2023-04-30T09:12:58;4.40;;;4.00;;
17372;SDS011;8803;48.116;11.590;2023-04-30T09:15:11;4.57;;;4.17;;
17372;SDS011;8803;48.116;11.590;2023-04-30T09:17:20;3.80;;;3.50;;
17372;SDS011;8803;48.116;11.590;2023-04-30T09:19:26;4.27;;;3.87;;
17372;SDS011;8803;48.116;11.590;2023-04-30T09:21:31;4.30;;;3.90;;
17372;SDS011;8803;48.116;11.590;2023-04-30T09:25:48;3.23;;;3.03;;
17372;SDS011;8803;48.116;11.590;2023-04-30T09:28:06;3.77;;;3.47;;
17372;SDS011;8803;48.116;11.590;2023-04-30T09:30:29;4.03;;;3.63;;
17372;SDS011;8803;48.116;11.590;2023-04-30T09:32:33;4.67;;;4.27;;
17372;SDS011;8803;48.116;11.590;2023-04-30T09:34:37;4.10;;;3.80;;
17372;SDS011;8803;48.116;11.590;2023-04-30T09:36:52;4.57;;;4.10;;
17372;SDS011;8803;48.116;11.590;2023-04-30T09:39:03;4.50;;;4.10;;
17372;SDS011;8803;48.116;11.590;2023-04-30T09:41:21;4.53;;;4.10;;
17372;SDS011;8803;48.116;11.590;2023-04-30T09:43:27;5.17;;;4.40;;
17372;SDS011;8803;48.116;11.590;2023-04-30T09:45:43;3.70;;;3.40;;
17372;SDS011;8803;48.116;11.590;2023-04-30T09:47:50;3.90;;;3.60;;
17372;SDS011;8803;48.116;11.590;2023-04-30T09:49:54;4.57;;;4.13;;
17372;SDS011;8803;48.116;11.590;2023-04-30T09:52:00;3.50;;;3.30;;
17372;SDS011;8803;48.116;11.590;2023-04-30T09:54:04;4.53;;;3.87;;
17372;SDS011;8803;48.116;11.590;2023-04-30T09:56:19;4.53;;;3.97;;
17372;SDS011;8803;48.116;11.590;2023-04-30T09:58:26;4.23;;;3.93;;
17372;SDS011;8803;48.116;11.590;2023-04-30T10:00:32;4.27;;;3.97;;
17372;SDS011;8803;48.116;11.590;2023-04-30T10:02:36;4.63;;;4.23;;
17372;SDS011;8803;48.116;11.590;2023-04-30T10:04:41;4.33;;;3.93;;
17372;SDS011;8803;48.116;11.590;2023-04-30T10:06:45;4.37;;;4.00;;
17372;SDS011;8803;48.116;11.590;2023-04-30T10:08:52;3.83;;;3.53;;
17372;SDS011;8803;48.116;11.590;2023-04-30T10:11:06;4.53;;;4.13;;
17372;SDS011;8803;48.116;11.590;2023-04-30T10:13:13;3.70;;;3.40;;
17372;SDS011;8803;48.116;11.590;2023-04-30T10:15:20;4.40;;;4.00;;
17372;SDS011;8803;48.116;11.590;2023-04-30T10:17:35;4.87;;;4.47;;
17372;SDS011;8803;48.116;11.590;2023-04-30T10:19:42;5.30;;;4.90;;
17372;SDS011;8803;48.116;11.590;2023-04-30T10:24:00;4.63;;;4.23;;
17372;SDS011;8803;48.116;11.590;2023-04-30T10:26:06;5.20;;;4.80;;
17372;SDS011;8803;48.116;11.590;2023-04-30T10:28:21;4.97;;;4.57;;
17372;SDS011;8803;48.116;11.590;2023-04-30T10:30:26;5.43;;;5.03;;
17372;SDS011;8803;48.116;11.590;2023-04-30T10:32:32;4.83;;;4.43;;
17372;SDS011;8803;48.116;11.590;2023-04-30T10:34:48;4.03;;;3.73;;
17372;SDS011;8803;48.116;11.590;2023-04-30T10:36:55;3.47;;;3.17;;
17372;SDS011;8803;48.116;11.590;2023-04-30T10:39:02;3.97;;;3.63;;
17372;SDS011;8803;48.116;11.590;2023-04-30T10:41:07;4.30;;;4.00;;
17372;SDS011;8803;48.116;11.590;2023-04-30T10:43:11;4.70;;;4.30;;
17372;SDS011;8803;48.116;11.590;2023-04-30T10:45:33;4.80;;;4.40;;
17372;SDS011;8803;48.116;11.590;2023-04-30T10:47:40;7.20;;;4.70;;
17372;SDS011;8803;48.116;11.590;2023-04-30T10:49:45;5.40;;;4.90;;
17372;SDS011;8803;48.116;11.590;2023-04-30T10:51:50;4.37;;;4.07;;
17372;SDS011;8803;48.116;11.590;2023-04-30T10:53:55;4.60;;;4.20;;
17372;SDS011;8803;48.116;11.590;2023-04-30T10:56:09;4.00;;;3.70;;
17372;SDS011;8803;48.116;11.590;2023-04-30T10:58:22;4.53;;;4.13;;
17372;SDS011;8803;48.116;11.590;2023-04-30T11:00:31;4.30;;;3.87;;
17372;SDS011;8803;48.116;11.590;2023-04-30T11:02:56;3.80;;;3.50;;
17372;SDS011;8803;48.116;11.590;2023-04-30T11:05:09;4.00;;;3.70;;
17372;SDS011;8803;48.116;11.590;2023-04-30T11:07:14;5.17;;;4.17;;
17372;SDS011;8803;48.116;11.590;2023-04-30T11:09:35;4.13;;;3.73;;
17372;SDS011;8803;48.116;11.590;2023-04-30T11:11:41;3.57;;;3.27;;
17372;SDS011;8803;48.116;11.590;2023-04-30T11:13:58;3.83;;;3.53;;
17372;SDS011;8803;48.116;11.590;2023-04-30T11:16:02;4.70;;;4.30;;
17372;SDS011;8803;48.116;11.590;2023-04-30T11:18:15;3.90;;;3.60;;
17372;SDS011;8803;48.116;11.590;2023-04-30T11:20:21;4.40;;;4.00;;
17372;SDS011;8803;48.116;11.590;2023-04-30T11:22:27;3.80;;;3.50;;
17372;SDS011;8803;48.116;11.590;2023-04-30T11:24:48;4.03;;;3.73;;
17372;SDS011;8803;48.116;11.590;2023-04-30T11:27:02;4.53;;;4.13;;
17372;SDS011;8803;48.116;11.590;2023-04-30T11:29:07;4.10;;;3.80;;
17372;SDS011;8803;48.116;11.590;2023-04-30T11:31:11;3.40;;;3.10;;
17372;SDS011;8803;48.116;11.590;2023-04-30T11:35:28;3.47;;;3.17;;
17372;SDS011;8803;48.116;11.590;2023-04-30T11:37:33;4.30;;;3.90;;
17372;SDS011;8803;48.116;11.590;2023-04-30T11:39:38;4.33;;;3.93;;
17372;SDS011;8803;48.116;11.590;2023-04-30T11:41:43;3.70;;;3.40;;
17372;SDS011;8803;48.116;11.590;2023-04-30T11:43:46;3.73;;;3.43;;
17372;SDS011;8803;48.116;11.590;2023-04-30T11:46:00;4.43;;;3.80;;
17372;SDS011;8803;48.116;11.590;2023-04-30T11:48:06;4.10;;;3.50;;
17372;SDS011;8803;48.116;11.590;2023-04-30T11:50:10;3.23;;;3.03;;
17372;SDS011;8803;48.116;11.590;2023-04-30T11:52:19;3.30;;;3.00;;
17372;SDS011;8803;48.116;11.590;2023-04-30T11:54:31;3.77;;;3.33;;
17372;SDS011;8803;48.116;11.590;2023-04-30T11:56:37;3.70;;;3.40;;
17372;SDS011;8803;48.116;11.590;2023-04-30T11:58:50;3.57;;;3.27;;
17372;SDS011;8803;48.116;11.590;2023-04-30T12:00:55;4.13;;;3.63;;
17372;SDS011;8803;48.116;11.590;2023-04-30T12:03:01;3.90;;;3.10;;
17372;SDS011;8803;48.116;11.590;2023-04-30T12:05:11;4.60;;;4.20;;
17372;SDS011;8803;48.116;11.590;2023-04-30T12:07:17;5.63;;;3.83;;
17372;SDS011;8803;48.116;11.590;2023-04-30T12:09:21;3.73;;;3.40;;
17372;SDS011;8803;48.116;11.590;2023-04-30T12:11:36;3.63;;;3.17;;
17372;SDS011;8803;48.116;11.590;2023-04-30T12:13:40;3.57;;;3.27;;
17372;SDS011;8803;48.116;11.590;2023-04-30T12:16:04;5.40;;;3.53;;
17372;SDS011;8803;48.116;11.590;2023-04-30T12:18:12;5.23;;;3.33;;
17372;SDS011;8803;48.116;11.590;2023-04-30T12:20:16;2.70;;;2.50;;
17372;SDS011;8803;48.116;11.590;2023-04-30T12:22:21;3.00;;;2.77;;
17372;SDS011;8803;48.116;11.590;2023-04-30T12:24:25;2.90;;;2.70;;
17372;SDS011;8803;48.116;11.590;2023-04-30T12:26:35;3.03;;;2.70;;
17372;SDS011;8803;48.116;11.590;2023-04-30T12:28:48;2.97;;;2.50;;
17372;SDS011;8803;48.116;11.590;2023-04-30T12:30:53;3.13;;;2.83;;
17372;SDS011;8803;48.116;11.590;2023-04-30T12:32:58;3.23;;;2.93;;
17372;SDS011;8803;48.116;11.590;2023-04-30T12:35:15;3.00;;;2.70;;
17372;SDS011;8803;48.116;11.590;2023-04-30T12:37:21;2.90;;;2.70;;
17372;SDS011;8803;48.116;11.590;2023-04-30T12:39:33;7.43;;;6.37;;
17372;SDS011;8803;48.116;11.590;2023-04-30T12:41:39;3.40;;;3.07;;
17372;SDS011;8803;48.116;11.590;2023-04-30T12:45:59;2.50;;;2.30;;
17372;SDS011;8803;48.116;11.590;2023-04-30T12:48:03;3.03;;;2.70;;
17372;SDS011;8803;48.116;11.590;2023-04-30T12:50:08;2.93;;;2.63;;
17372;SDS011;8803;48.116;11.590;2023-04-30T12:52:23;2.87;;;2.53;;
17372;SDS011;8803;48.116;11.590;2023-04-30T12:54:27;3.83;;;3.10;;
17372;SDS011;8803;48.116;11.590;2023-04-30T12:56:56;3.37;;;3.07;;
17372;SDS011;8803;48.116;11.590;2023-04-30T12:59:14;4.43;;;3.43;;
17372;SDS011;8803;48.116;11.590;2023-04-30T13:01:18;4.60;;;3.33;;
17372;SDS011;8803;48.116;11.590;2023-04-30T13:03:23;3.60;;;3.30;;
17372;SDS011;8803;48.116;11.590;2023-04-30T13:05:47;3.40;;;3.10;;
17372;SDS011;8803;48.116;11.590;2023-04-30T13:07:52;3.53;;;3.23;;
17372;SDS011;8803;48.116;11.590;2023-04-30T13:09:57;3.23;;;2.90;;
17372;SDS011;8803;48.116;11.590;2023-04-30T13:12:01;3.00;;;2.80;;
17372;SDS011;8803;48.116;11.590;2023-04-30T13:14:06;3.23;;;2.83;;
17372;SDS011;8803;48.116;11.590;2023-04-30T13:16:22;2.93;;;2.63;;